Time;durP1;ratioP1;P1;durP2;ratioP2;P2;SDS_P1;SDS_P2;PMS_P1;PMS_P2;Temp;Humidity;BMP_temperature;BMP_pressure;BME280_temperature;BME280_humidity;BME280_pressure;Samples;Min_cycle;Max_cycle;Signal;HPM_P1;HPM_P2
2021/12/13 00:02:23;;;;;;;5.00;4.38;;;9.40;99.90;;;;;;5072381;28;20280;-46
2021/12/13 00:05:05;;;;;;;7.40;4.53;;;9.40;99.90;;;;;;5072164;28;20288;-45
2021/12/13 00:07:36;;;;;;;7.38;4.38;;;9.40;99.90;;;;;;5072359;28;20579;-45
2021/12/13 00:10:17;;;;;;;6.25;4.82;;;9.40;99.90;;;;;;5071834;28;20270;-46
2021/12/13 00:12:48;;;;;;;6.15;3.92;;;9.40;99.90;;;;;;5072211;28;20231;-46
2021/12/13 00:15:26;;;;;;;7.85;3.90;;;9.40;99.90;;;;;;5072030;28;20154;-47
2021/12/13 00:17:53;;;;;;;5.45;3.40;;;9.40;99.90;;;;;;5071930;28;20165;-46
2021/12/13 00:20:35;;;;;;;8.77;3.55;;;9.40;99.90;;;;;;5071949;28;20173;-46
2021/12/13 00:23:33;;;;;;;4.25;3.42;;;9.40;99.90;;;;;;5071921;28;20189;-46
2021/12/13 00:26:01;;;;;;;7.95;3.25;;;9.40;99.90;;;;;;5034828;28;20367;-46
2021/12/13 00:28:32;;;;;;;4.35;3.40;;;9.40;99.90;;;;;;5072244;28;20264;-46
2021/12/13 00:31:26;;;;;;;5.28;3.22;;;9.40;99.90;;;;;;5070562;28;20205;-45
2021/12/13 00:34:27;;;;;;;5.78;3.45;;;9.40;99.90;;;;;;5071874;28;20228;-46
2021/12/13 00:37:20;;;;;;;4.72;3.50;;;9.40;99.90;;;;;;5072397;28;20173;-46
2021/12/13 00:39:57;;;;;;;4.35;3.08;;;9.40;99.90;;;;;;5072068;28;20170;-46
2021/12/13 00:42:29;;;;;;;10.15;3.90;;;9.50;99.90;;;;;;5071986;28;20252;-46
2021/12/13 00:44:58;;;;;;;8.88;3.47;;;9.40;99.90;;;;;;5071972;28;20711;-46
2021/12/13 00:47:28;;;;;;;5.22;3.78;;;9.50;99.90;;;;;;5070760;28;20177;-46
2021/12/13 00:50:03;;;;;;;3.38;3.08;;;9.50;99.90;;;;;;5071905;28;20174;-45
2021/12/13 00:52:32;;;;;;;3.65;2.90;;;9.50;99.90;;;;;;5070280;28;20622;-45
2021/12/13 00:54:59;;;;;;;6.05;3.40;;;9.50;99.90;;;;;;5071628;28;20233;-46
2021/12/13 00:57:28;;;;;;;4.72;2.92;;;11.20;99.90;;;;;;5072011;28;20174;-46
2021/12/13 01:00:04;;;;;;;5.93;3.03;;;9.50;99.90;;;;;;5071906;28;20170;-45
2021/12/13 01:02:56;;;;;;;3.78;2.58;;;9.50;99.90;;;;;;5071643;28;20533;-45
2021/12/13 01:05:46;;;;;;;6.15;2.65;;;9.50;99.90;;;;;;5074286;28;20158;-45
2021/12/13 01:08:30;;;;;;;3.22;2.80;;;9.50;99.90;;;;;;5075732;28;20204;-46
2021/12/13 01:11:19;;;;;;;9.25;3.22;;;9.50;99.90;;;;;;5075057;28;20226;-45
2021/12/13 01:14:08;;;;;;;7.35;3.13;;;9.50;99.90;;;;;;5075637;28;20539;-46
2021/12/13 01:16:55;;;;;;;5.40;2.80;;;9.50;99.90;;;;;;5075566;28;20166;-46
2021/12/13 01:19:32;;;;;;;4.28;2.95;;;9.50;99.90;;;;;;5075518;28;20205;-46
2021/12/13 01:27:41;;;;;;;20.50;4.53;;;9.50;99.90;;;;;;5074928;28;20578;-45
2021/12/13 01:30:12;;;;;;;24.27;3.90;;;9.40;99.90;;;;;;5075029;28;20248;-46
2021/12/13 01:32:41;;;;;;;20.27;3.83;;;9.50;99.90;;;;;;5075024;28;20188;-45
2021/12/13 01:35:12;;;;;;;19.42;3.58;;;9.40;99.90;;;;;;5074946;28;20264;-45
2021/12/13 01:37:38;;;;;;;20.85;4.00;;;9.50;99.90;;;;;;5075128;28;20174;-46
2021/12/13 01:40:10;;;;;;;20.73;4.20;;;9.50;99.90;;;;;;5074821;28;20166;-45
2021/12/13 01:42:36;;;;;;;32.58;4.28;;;9.40;99.90;;;;;;5074853;28;20257;-45
2021/12/13 01:45:14;;;;;;;30.00;3.85;;;9.50;99.90;;;;;;5075002;28;20252;-45
2021/12/13 01:47:44;;;;;;;32.25;5.45;;;9.50;99.90;;;;;;5074742;28;20158;-46
2021/12/13 01:50:16;;;;;;;24.35;3.97;;;9.40;99.90;;;;;;5074618;28;20226;-45
2021/12/13 01:52:42;;;;;;;12.65;3.90;;;9.40;99.90;;;;;;5074638;28;20166;-46
2021/12/13 01:55:33;;;;;;;9.38;2.92;;;9.40;99.90;;;;;;5074864;28;20177;-46
2021/12/13 01:58:18;;;;;;;8.55;2.80;;;9.50;99.90;;;;;;5074782;28;20178;-46
2021/12/13 02:04:07;;;;;;;4.70;2.10;;;9.50;99.90;;;;;;5074673;28;20177;-46
2021/12/13 02:06:46;;;;;;;2.72;2.42;;;9.50;99.90;;;;;;5074393;28;20166;-46
2021/12/13 02:09:20;;;;;;;2.55;2.15;;;9.50;99.90;;;;;;5074129;28;20248;-46
2021/12/13 02:11:51;;;;;;;3.35;2.60;;;9.50;99.90;;;;;;5074211;28;20197;-46
2021/12/13 02:14:20;;;;;;;3.08;2.60;;;9.50;99.90;;;;;;5074522;28;20244;-45
2021/12/13 02:19:58;;;;;;;3.85;2.80;;;9.50;99.90;;;;;;5074735;28;20535;-47
2021/12/13 02:22:45;;;;;;;3.00;2.53;;;9.50;99.90;;;;;;5074707;28;20178;-45
2021/12/13 02:25:26;;;;;;;6.13;3.38;;;9.50;99.90;;;;;;5074033;28;20205;-46
2021/12/13 02:27:59;;;;;;;4.93;2.95;;;9.50;99.90;;;;;;5074009;28;20245;-46
2021/12/13 02:30:41;;;;;;;5.80;3.13;;;9.50;99.90;;;;;;5074167;28;20198;-46
2021/12/13 02:33:10;;;;;;;4.45;2.97;;;9.50;99.90;;;;;;5073984;28;20265;-46
2021/12/13 02:35:39;;;;;;;5.90;2.55;;;9.50;99.90;;;;;;5073927;28;20220;-46
2021/12/13 02:38:07;;;;;;;3.40;2.72;;;9.50;99.90;;;;;;5074123;28;20529;-46
2021/12/13 02:40:34;;;;;;;3.70;2.60;;;9.50;99.90;;;;;;5073754;28;20166;-47
2021/12/13 02:43:00;;;;;;;5.85;2.80;;;9.50;99.90;;;;;;5073593;28;20645;-47
2021/12/13 02:45:32;;;;;;;4.38;2.55;;;9.50;99.90;;;;;;5074055;28;20178;-46
2021/12/13 02:48:09;;;;;;;5.63;3.13;;;9.50;99.90;;;;;;5073796;28;20193;-46
2021/12/13 02:51:10;;;;;;;4.22;2.70;;;9.50;99.90;;;;;;5073475;28;20252;-46
2021/12/13 02:53:50;;;;;;;4.88;2.92;;;9.50;99.90;;;;;;5073412;28;20177;-46
2021/12/13 02:56:22;;;;;;;3.80;2.58;;;9.50;99.90;;;;;;5073199;28;20169;-46
2021/12/13 02:58:50;;;;;;;5.85;2.88;;;9.50;99.90;;;;;;5073148;28;20170;-47
2021/12/13 03:01:22;;;;;;;10.55;2.70;;;9.50;99.90;;;;;;5073146;28;20195;-46
2021/12/13 03:03:57;;;;;;;13.88;3.97;;;9.50;99.90;;;;;;5073451;28;20174;-46
2021/12/13 03:06:30;;;;;;;5.20;2.67;;;9.50;99.90;;;;;;5073282;28;20193;-46
2021/12/13 03:09:00;;;;;;;8.05;2.70;;;9.50;99.90;;;;;;5073293;28;20252;-46
2021/12/13 03:11:32;;;;;;;4.47;2.80;;;9.50;99.90;;;;;;5073589;28;20198;-46
2021/12/13 03:14:06;;;;;;;6.70;2.63;;;9.50;99.90;;;;;;5073063;28;20170;-45
2021/12/13 03:17:08;;;;;;;5.95;2.85;;;9.50;99.90;;;;;;5072846;28;20181;-46
2021/12/13 03:19:39;;;;;;;9.57;2.88;;;9.50;99.90;;;;;;5073103;28;20173;-46
2021/12/13 03:22:20;;;;;;;11.00;2.92;;;9.50;99.90;;;;;;5072966;28;20167;-46
2021/12/13 03:25:07;;;;;;;5.45;2.70;;;9.50;99.90;;;;;;5072994;28;20173;-46
2021/12/13 03:27:47;;;;;;;5.72;2.47;;;9.50;99.90;;;;;;5072787;28;20162;-46
2021/12/13 03:30:18;;;;;;;4.20;2.45;;;9.50;99.90;;;;;;5072644;28;20162;-46
2021/12/13 03:32:52;;;;;;;6.10;2.40;;;9.50;99.90;;;;;;5072665;28;20253;-46
2021/12/13 03:35:34;;;;;;;3.38;2.50;;;9.50;99.90;;;;;;5072704;28;20181;-46
2021/12/13 03:38:26;;;;;;;4.25;2.65;;;9.50;99.90;;;;;;5072594;28;20166;-46
2021/12/13 03:40:56;;;;;;;4.47;2.40;;;9.50;99.90;;;;;;5072823;28;20645;-46
2021/12/13 03:43:34;;;;;;;4.13;2.53;;;9.50;99.90;;;;;;5072493;28;20169;-45
2021/12/13 03:46:06;;;;;;;4.45;2.83;;;9.50;99.90;;;;;;5072443;28;20552;-46
2021/12/13 03:48:33;;;;;;;4.63;2.97;;;9.50;99.90;;;;;;5072386;28;20154;-46
2021/12/13 03:51:10;;;;;;;4.40;2.40;;;9.50;99.90;;;;;;5072577;28;20233;-47
2021/12/13 03:53:37;;;;;;;10.77;3.10;;;9.50;99.90;;;;;;5072319;28;20166;-46
2021/12/13 03:56:12;;;;;;;6.78;3.00;;;9.50;99.90;;;;;;5072334;28;20188;-46
2021/12/13 03:58:45;;;;;;;6.22;2.80;;;9.50;99.90;;;;;;5072250;28;20169;-48
2021/12/13 04:01:24;;;;;;;14.15;3.30;;;9.50;99.90;;;;;;5072065;28;20174;-46
2021/12/13 04:03:55;;;;;;;8.35;2.42;;;9.40;99.90;;;;;;5072125;28;20187;-46
2021/12/13 04:06:21;;;;;;;7.15;2.85;;;9.40;99.90;;;;;;5072095;28;20166;-47
2021/12/13 04:08:50;;;;;;;11.23;2.85;;;9.40;99.90;;;;;;5070714;28;20166;-46
2021/12/13 04:11:16;;;;;;;4.50;2.72;;;9.40;99.90;;;;;;5070766;28;20577;-46
2021/12/13 04:13:54;;;;;;;3.88;2.83;;;9.40;99.90;;;;;;5072066;28;20197;-46
2021/12/13 04:16:33;;;;;;;4.55;3.50;;;9.50;99.90;;;;;;5071928;28;20649;-46
2021/12/13 04:19:08;;;;;;;3.08;2.78;;;9.50;99.90;;;;;;5072266;28;20217;-46
2021/12/13 04:21:55;;;;;;;4.05;2.75;;;9.40;99.90;;;;;;5072196;28;20537;-47
2021/12/13 04:24:53;;;;;;;5.47;2.90;;;9.40;99.90;;;;;;5072182;28;20204;-47
2021/12/13 04:27:18;;;;;;;3.75;2.80;;;9.40;99.90;;;;;;5066260;28;20200;-47
2021/12/13 04:29:47;;;;;;;3.75;2.35;;;9.40;99.90;;;;;;5072119;28;20634;-46
2021/12/13 04:32:22;;;;;;;8.65;3.17;;;9.40;99.90;;;;;;5071942;28;20220;-46
2021/12/13 04:34:51;;;;;;;7.00;3.00;;;9.40;99.90;;;;;;5071812;28;20637;-46
2021/12/13 04:37:21;;;;;;;5.63;2.80;;;9.40;99.90;;;;;;5071988;28;20557;-47
2021/12/13 04:39:52;;;;;;;7.72;3.30;;;9.40;99.90;;;;;;5076091;28;20303;-47
2021/12/13 04:42:20;;;;;;;5.03;2.80;;;9.40;99.90;;;;;;5078472;28;20201;-46
2021/12/13 04:44:55;;;;;;;5.53;3.03;;;9.40;99.90;;;;;;5078420;28;20154;-47
2021/12/13 04:47:43;;;;;;;9.30;3.30;;;9.40;99.90;;;;;;5078375;28;20177;-47
2021/12/13 04:50:25;;;;;;;6.90;2.85;;;9.40;99.90;;;;;;5078285;28;20219;-46
2021/12/13 04:52:51;;;;;;;4.80;2.85;;;9.40;99.90;;;;;;5078298;28;20709;-47
2021/12/13 04:55:42;;;;;;;5.20;3.15;;;9.40;99.90;;;;;;5077467;28;20437;-46
2021/12/13 04:58:12;;;;;;;4.25;2.75;;;9.40;99.90;;;;;;5078575;28;20201;-47
2021/12/13 05:00:42;;;;;;;3.90;2.70;;;9.50;99.90;;;;;;5078306;28;20162;-47
2021/12/13 05:03:12;;;;;;;4.85;2.85;;;9.50;99.90;;;;;;5078268;28;20173;-47
2021/12/13 05:05:38;;;;;;;6.57;2.45;;;9.50;99.90;;;;;;5078236;28;20165;-47
2021/12/13 05:08:08;;;;;;;2.55;2.05;;;9.50;99.90;;;;;;5078308;28;20288;-46
2021/12/13 05:10:34;;;;;;;3.30;2.45;;;9.50;99.90;;;;;;5078013;28;20547;-45
2021/12/13 05:13:09;;;;;;;4.70;3.03;;;9.50;99.90;;;;;;5078220;28;20176;-45
2021/12/13 05:15:39;;;;;;;5.20;2.80;;;9.50;99.90;;;;;;5078386;28;20616;-46
2021/12/13 05:18:10;;;;;;;5.22;2.67;;;9.40;99.90;;;;;;5078364;28;20178;-45
2021/12/13 05:20:39;;;;;;;4.97;2.40;;;9.40;99.90;;;;;;5078098;28;20638;-45
2021/12/13 05:23:09;;;;;;;6.15;2.70;;;9.40;99.90;;;;;;5078110;28;20224;-45
2021/12/13 05:25:44;;;;;;;4.68;2.63;;;9.40;99.90;;;;;;5078060;28;20629;-47
2021/12/13 05:28:12;;;;;;;4.28;2.28;;;9.40;99.90;;;;;;5078148;28;20162;-47
2021/12/13 05:30:57;;;;;;;4.97;2.42;;;9.40;99.90;;;;;;5077998;28;20202;-46
2021/12/13 05:33:24;;;;;;;6.63;2.70;;;9.40;99.90;;;;;;5078541;28;20173;-46
2021/12/13 05:35:54;;;;;;;8.23;2.70;;;9.40;99.90;;;;;;5077840;28;20196;-45
2021/12/13 05:38:33;;;;;;;5.85;2.45;;;9.40;99.90;;;;;;5077908;28;20166;-45
2021/12/13 05:41:03;;;;;;;4.47;2.42;;;9.40;99.90;;;;;;5078092;28;20196;-46
2021/12/13 05:43:50;;;;;;;6.45;2.20;;;9.40;99.90;;;;;;5077971;28;20594;-46
2021/12/13 05:46:20;;;;;;;6.30;2.20;;;9.40;99.90;;;;;;5078132;28;20206;-47
2021/12/13 05:48:56;;;;;;;2.70;2.10;;;9.40;99.90;;;;;;5078151;28;20170;-46
2021/12/13 05:51:39;;;;;;;5.65;2.42;;;9.50;99.90;;;;;;5075492;28;20208;-46
2021/12/13 05:54:07;;;;;;;6.75;2.38;;;9.40;99.90;;;;;;5074517;28;20197;-46
2021/12/13 05:56:41;;;;;;;3.58;2.42;;;9.50;99.90;;;;;;5074545;28;20207;-46
2021/12/13 05:59:23;;;;;;;4.68;2.70;;;9.50;99.90;;;;;;5074396;28;20166;-47
2021/12/13 06:02:11;;;;;;;3.75;2.38;;;9.50;99.90;;;;;;5074463;28;20178;-47
2021/12/13 06:04:55;;;;;;;7.90;2.50;;;9.50;99.90;;;;;;5074544;28;20162;-47
2021/12/13 06:07:20;;;;;;;5.88;2.67;;;9.50;99.90;;;;;;5074414;28;20174;-46
2021/12/13 06:09:54;;;;;;;5.50;2.75;;;9.50;99.90;;;;;;5074436;28;21262;-47
2021/12/13 06:12:27;;;;;;;2.72;2.30;;;9.50;99.90;;;;;;5074502;28;20214;-45
2021/12/13 06:14:54;;;;;;;5.80;2.55;;;9.50;99.90;;;;;;5074769;28;20227;-47
2021/12/13 06:17:29;;;;;;;4.78;2.72;;;9.50;99.90;;;;;;5074141;28;20181;-47
2021/12/13 06:20:03;;;;;;;5.22;2.13;;;9.50;99.90;;;;;;5074579;28;20169;-46
2021/12/13 06:22:31;;;;;;;5.30;2.58;;;9.50;99.90;;;;;;5074138;28;20265;-46
2021/12/13 06:24:59;;;;;;;7.18;2.38;;;9.50;99.90;;;;;;5074064;28;20231;-46
2021/12/13 06:27:28;;;;;;;4.13;2.50;;;9.50;99.90;;;;;;5074599;28;20181;-47
2021/12/13 06:30:09;;;;;;;2.40;2.20;;;9.50;99.90;;;;;;5074347;28;20162;-47
2021/12/13 06:32:50;;;;;;;4.68;2.00;;;9.60;99.90;;;;;;5073751;28;20243;-47
2021/12/13 06:35:31;;;;;;;3.22;2.08;;;9.50;99.90;;;;;;5074034;28;20178;-48
2021/12/13 06:38:00;;;;;;;3.92;2.00;;;9.60;99.90;;;;;;5074166;28;20181;-47
2021/12/13 06:40:29;;;;;;;6.32;2.20;;;9.50;99.90;;;;;;5074177;28;20492;-46
2021/12/13 06:42:57;;;;;;;4.53;2.28;;;9.50;99.90;;;;;;5073990;28;20166;-46
2021/12/13 06:45:31;;;;;;;5.30;2.40;;;9.50;99.90;;;;;;5074174;28;20214;-48
2021/12/13 06:47:59;;;;;;;5.10;2.85;;;9.50;99.90;;;;;;5074158;28;20524;-46
2021/12/13 06:50:31;;;;;;;6.53;1.85;;;9.50;99.90;;;;;;5073808;28;20170;-49
2021/12/13 06:53:19;;;;;;;3.25;1.80;;;9.50;99.90;;;;;;5073778;28;20177;-47
2021/12/13 06:55:46;;;;;;;4.45;2.22;;;9.50;99.90;;;;;;5073703;28;20170;-47
2021/12/13 06:58:23;;;;;;;4.43;2.50;;;9.50;99.90;;;;;;5073386;28;20177;-47
2021/12/13 07:00:53;;;;;;;6.32;2.38;;;9.40;99.90;;;;;;5073347;28;20166;-46
2021/12/13 07:03:32;;;;;;;11.80;3.47;;;9.40;99.90;;;;;;5072797;28;20162;-46
2021/12/13 07:06:00;;;;;;;4.30;2.15;;;8.40;99.90;;;;;;5073481;28;20170;-46
2021/12/13 07:08:36;;;;;;;5.72;2.10;;;9.50;99.90;;;;;;5073764;28;20166;-46
2021/12/13 07:11:08;;;;;;;3.30;1.90;;;9.40;99.90;;;;;;5071828;28;20217;-47
2021/12/13 07:14:00;;;;;;;3.60;1.73;;;9.40;99.90;;;;;;5073051;28;20697;-46
2021/12/13 07:16:33;;;;;;;4.10;1.75;;;9.40;99.90;;;;;;5073367;28;20167;-47
2021/12/13 07:19:18;;;;;;;3.47;1.77;;;9.40;99.90;;;;;;5073269;28;20373;-47
2021/12/13 07:21:57;;;;;;;4.63;2.15;;;9.40;99.90;;;;;;5073126;28;20604;-47
2021/12/13 07:24:42;;;;;;;6.85;1.80;;;9.50;99.90;;;;;;5073224;28;20177;-48
2021/12/13 07:27:15;;;;;;;8.23;1.77;;;9.40;99.90;;;;;;5073105;28;20162;-47
2021/12/13 07:29:53;;;;;;;4.72;1.90;;;9.40;99.90;;;;;;5072728;28;20256;-48
2021/12/13 07:32:34;;;;;;;4.07;1.50;;;9.40;99.90;;;;;;5072900;28;20561;-47
2021/12/13 07:35:12;;;;;;;4.88;1.75;;;9.40;99.90;;;;;;5072691;28;20681;-47
2021/12/13 07:37:51;;;;;;;2.95;1.50;;;9.40;99.90;;;;;;5072847;28;20206;-46
2021/12/13 07:40:38;;;;;;;6.68;1.50;;;9.40;99.90;;;;;;5072566;28;20166;-47
2021/12/13 07:43:15;;;;;;;2.38;1.60;;;9.50;99.90;;;;;;5072520;28;20224;-48
2021/12/13 07:45:46;;;;;;;5.97;1.67;;;9.50;99.90;;;;;;5072496;28;20528;-47
2021/12/13 07:48:18;;;;;;;6.97;1.95;;;9.40;99.90;;;;;;5072383;28;20162;-46
2021/12/13 07:50:58;;;;;;;6.53;2.08;;;9.50;99.90;;;;;;5072280;28;20185;-48
2021/12/13 07:53:26;;;;;;;9.73;2.03;;;9.40;99.90;;;;;;5072568;28;20533;-47
2021/12/13 07:55:52;;;;;;;6.70;2.15;;;9.40;99.90;;;;;;5072567;28;20172;-47
2021/12/13 07:58:38;;;;;;;7.35;1.90;;;9.40;99.90;;;;;;5072267;28;20248;-46
2021/12/13 08:01:18;;;;;;;4.55;1.70;;;9.40;99.90;;;;;;5072319;28;20195;-46
2021/12/13 08:03:52;;;;;;;5.63;1.70;;;9.50;99.90;;;;;;5072265;28;20237;-47
2021/12/13 08:06:19;;;;;;;8.63;2.28;;;9.50;99.90;;;;;;5072343;28;20173;-46
2021/12/13 08:08:51;;;;;;;3.45;1.75;;;9.50;99.90;;;;;;5071944;28;20166;-47
2021/12/13 08:11:18;;;;;;;4.68;1.65;;;9.50;99.90;;;;;;5072201;28;20212;-47
2021/12/13 08:13:56;;;;;;;3.20;1.92;;;9.50;99.90;;;;;;5071310;28;20193;-46
2021/12/13 08:16:29;;;;;;;5.13;2.00;;;9.50;99.90;;;;;;5071998;28;20508;-46
2021/12/13 08:19:13;;;;;;;7.45;1.75;;;9.50;99.90;;;;;;5072271;28;20162;-47
2021/12/13 08:21:48;;;;;;;3.70;1.75;;;9.50;99.90;;;;;;5072224;28;20178;-46
2021/12/13 08:24:22;;;;;;;3.90;1.77;;;9.50;99.90;;;;;;5071753;28;20641;-47
2021/12/13 08:26:55;;;;;;;1.45;1.30;;;9.50;99.90;;;;;;5071729;28;20165;-48
2021/12/13 08:29:31;;;;;;;3.05;1.38;;;9.50;99.90;;;;;;5072026;28;20178;-47
2021/12/13 08:32:05;;;;;;;3.40;1.42;;;9.50;99.90;;;;;;5071844;28;20290;-46
2021/12/13 08:34:35;;;;;;;2.25;1.30;;;9.60;99.90;;;;;;5071927;28;20220;-46
2021/12/13 08:37:21;;;;;;;3.28;0.90;;;9.60;99.90;;;;;;5071539;28;20178;-48
2021/12/13 08:39:53;;;;;;;1.27;1.13;;;9.60;99.90;;;;;;5071625;28;20168;-46
2021/12/13 08:42:21;;;;;;;2.38;1.15;;;9.60;99.90;;;;;;5071774;28;20252;-46
2021/12/13 08:44:59;;;;;;;1.40;1.13;;;9.60;99.90;;;;;;5071899;28;20173;-46
2021/12/13 08:47:35;;;;;;;1.67;1.20;;;9.60;99.90;;;;;;5072207;28;20173;-48
2021/12/13 08:50:10;;;;;;;4.95;1.38;;;9.60;99.90;;;;;;5071730;28;20169;-47
2021/12/13 08:52:39;;;;;;;3.80;1.23;;;9.60;99.90;;;;;;5071642;28;20209;-48
2021/12/13 08:55:10;;;;;;;2.17;1.30;;;9.60;99.90;;;;;;5071747;28;20504;-48
2021/12/13 08:58:15;;;;;;;3.30;1.13;;;9.60;99.90;;;;;;5071432;28;20170;-47
2021/12/13 09:01:03;;;;;;;1.20;1.10;;;9.60;99.90;;;;;;5071397;28;20162;-46
2021/12/13 09:03:48;;;;;;;3.38;1.25;;;8.50;99.90;;;;;;5071061;28;20573;-46
2021/12/13 09:06:17;;;;;;;3.92;1.33;;;9.70;99.90;;;;;;5071179;28;20213;-46
2021/12/13 09:09:03;;;;;;;2.15;1.40;;;9.70;99.90;;;;;;5070999;28;20273;-47
2021/12/13 09:11:39;;;;;;;1.85;1.55;;;9.70;99.90;;;;;;5071294;28;20213;-46
2021/12/13 09:14:15;;;;;;;3.47;2.17;;;9.80;99.90;;;;;;5071377;28;20517;-47
2021/12/13 09:17:10;;;;;;;4.18;2.67;;;9.80;99.90;;;;;;5071369;28;20177;-46
2021/12/13 09:19:44;;;;;;;6.57;3.75;;;9.80;99.90;;;;;;5071397;28;20181;-46
2021/12/13 09:22:12;;;;;;;4.97;1.95;;;9.90;99.90;;;;;;5069628;28;20202;-46
2021/12/13 09:25:03;;;;;;;8.45;2.95;;;9.90;99.90;;;;;;5071785;28;20166;-48
2021/12/13 09:27:37;;;;;;;8.88;3.60;;;9.90;99.90;;;;;;5074896;28;20169;-48
2021/12/13 09:30:14;;;;;;;7.50;3.88;;;9.90;99.90;;;;;;5074904;28;20527;-47
2021/12/13 09:32:48;;;;;;;5.22;2.80;;;9.90;99.90;;;;;;5074462;28;20254;-46
2021/12/13 09:35:23;;;;;;;9.00;2.70;;;9.90;99.90;;;;;;5074975;28;20161;-46
2021/12/13 09:37:50;;;;;;;8.35;2.60;;;9.90;99.90;;;;;;5074493;28;20651;-46
2021/12/13 09:40:18;;;;;;;6.72;2.70;;;9.90;99.90;;;;;;5074743;28;20170;-47
2021/12/13 09:42:51;;;;;;;7.47;3.00;;;9.90;99.90;;;;;;5074632;28;20170;-47
2021/12/13 09:45:42;;;;;;;6.72;3.25;;;10.00;99.90;;;;;;5074467;28;20162;-47
2021/12/13 09:48:20;;;;;;;9.95;4.57;;;10.00;99.90;;;;;;5074302;28;20177;-46
2021/12/13 09:50:48;;;;;;;8.38;3.88;;;10.00;99.90;;;;;;5074331;28;20193;-47
2021/12/13 09:53:15;;;;;;;11.32;3.78;;;10.00;99.90;;;;;;5074415;28;20181;-46
2021/12/13 09:55:47;;;;;;;6.03;3.00;;;10.00;99.90;;;;;;5074242;28;20208;-46
2021/12/13 09:58:47;;;;;;;5.10;2.22;;;10.00;99.90;;;;;;5074219;28;20520;-46
2021/12/13 10:01:25;;;;;;;5.50;2.28;;;10.00;99.90;;;;;;5071876;28;20642;-47
2021/12/13 10:04:16;;;;;;;7.38;2.10;;;10.00;99.90;;;;;;5074540;28;20166;-46
2021/12/13 10:06:56;;;;;;;5.65;2.60;;;10.00;99.90;;;;;;5074279;28;20165;-46
2021/12/13 10:09:23;;;;;;;5.95;2.30;;;10.00;99.90;;;;;;5074072;28;20236;-46
2021/12/13 10:12:19;;;;;;;5.07;2.58;;;10.00;99.90;;;;;;5073984;28;20201;-46
2021/12/13 10:14:56;;;;;;;5.30;2.75;;;10.00;99.90;;;;;;5070383;28;20178;-46
2021/12/13 10:17:25;;;;;;;4.68;2.38;;;10.00;99.90;;;;;;5073977;28;20197;-46
2021/12/13 10:19:54;;;;;;;2.72;1.88;;;10.10;99.90;;;;;;5073959;28;20684;-45
2021/12/13 10:22:24;;;;;;;2.78;2.30;;;10.10;99.90;;;;;;5073969;28;20235;-46
2021/12/13 10:25:02;;;;;;;2.22;1.80;;;10.10;99.90;;;;;;5073859;28;20175;-46
2021/12/13 10:27:27;;;;;;;2.47;2.13;;;10.10;99.90;;;;;;5072746;28;20158;-45
2021/12/13 10:29:57;;;;;;;3.30;2.08;;;10.10;99.90;;;;;;5074179;28;20177;-46
2021/12/13 10:32:30;;;;;;;3.72;1.95;;;10.20;99.90;;;;;;5074367;28;20210;-47
2021/12/13 10:35:00;;;;;;;4.43;2.38;;;10.20;99.90;;;;;;5073787;28;20162;-47
2021/12/13 10:37:36;;;;;;;7.03;2.80;;;10.30;99.90;;;;;;5073473;28;20192;-46
2021/12/13 10:40:25;;;;;;;7.28;2.65;;;10.40;99.90;;;;;;5074037;28;20180;-47
2021/12/13 10:42:59;;;;;;;2.28;2.08;;;10.50;99.90;;;;;;5073761;28;20158;-47
2021/12/13 10:45:31;;;;;;;3.72;2.40;;;10.50;99.90;;;;;;5074132;28;20510;-47
2021/12/13 10:48:03;;;;;;;3.58;2.03;;;10.60;99.90;;;;;;5074056;28;20170;-45
2021/12/13 10:50:42;;;;;;;5.15;2.60;;;10.50;99.90;;;;;;5073468;28;20170;-47
2021/12/13 10:53:10;;;;;;;3.35;2.38;;;10.60;99.90;;;;;;5072196;28;20667;-46
2021/12/13 10:55:51;;;;;;;1.98;1.80;;;10.50;99.90;;;;;;5073331;28;20257;-47
2021/12/13 10:58:20;;;;;;;3.08;2.10;;;10.50;99.90;;;;;;5073298;28;20166;-46
2021/12/13 11:00:54;;;;;;;3.90;2.30;;;10.40;99.90;;;;;;5073266;28;20162;-46
2021/12/13 11:03:23;;;;;;;2.60;1.90;;;10.50;99.90;;;;;;5073338;28;20248;-47
2021/12/13 11:05:50;;;;;;;2.42;2.22;;;10.50;99.90;;;;;;5073264;28;20192;-46
2021/12/13 11:08:19;;;;;;;2.70;2.00;;;10.40;99.90;;;;;;5070561;28;20634;-53
2021/12/13 11:10:59;;;;;;;4.25;2.20;;;10.40;99.90;;;;;;5070767;28;20221;-56
2021/12/13 11:13:30;;;;;;;2.83;1.80;;;10.40;99.90;;;;;;5071295;28;20205;-53
2021/12/13 11:16:01;;;;;;;4.57;1.75;;;10.40;99.90;;;;;;5071936;28;20166;-57
2021/12/13 11:18:28;;;;;;;4.57;1.85;;;10.40;99.90;;;;;;5071350;28;20253;-58
2021/12/13 11:20:57;;;;;;;6.18;2.00;;;10.40;99.90;;;;;;5072058;28;20202;-54
2021/12/13 11:23:23;;;;;;;4.40;1.63;;;10.50;99.90;;;;;;5072163;28;20208;-52
2021/12/13 11:25:54;;;;;;;1.25;1.10;;;10.60;99.90;;;;;;5072789;28;20629;-53
2021/12/13 11:28:20;;;;;;;1.75;0.90;;;10.60;99.90;;;;;;5072662;28;20166;-49
2021/12/13 11:30:48;;;;;;;2.08;1.00;;;10.60;99.90;;;;;;5069456;28;20433;-53
2021/12/13 11:33:40;;;;;;;5.72;1.00;;;10.70;99.90;;;;;;5071139;28;20540;-51
2021/12/13 11:36:21;;;;;;;0.63;0.63;;;10.70;99.90;;;;;;5080169;28;20176;-53
2021/12/13 11:39:17;;;;;;;1.85;0.88;;;10.70;99.90;;;;;;5092920;28;20204;-53
2021/12/13 11:42:24;;;;;;;0.63;0.60;;;10.70;99.90;;;;;;5092716;28;20522;-51
2021/12/13 11:45:14;;;;;;;2.65;0.88;;;10.70;99.90;;;;;;5092793;28;20157;-53
2021/12/13 11:47:43;;;;;;;0.65;0.60;;;10.70;99.90;;;;;;5091650;28;20590;-51
2021/12/13 11:50:39;;;;;;;0.70;0.70;;;10.70;99.90;;;;;;5092290;28;20218;-53
2021/12/13 11:53:33;;;;;;;1.20;1.10;;;10.70;99.90;;;;;;5092227;28;20272;-53
2021/12/13 11:56:34;;;;;;;0.52;0.52;;;10.70;99.90;;;;;;5092487;28;20219;-53
2021/12/13 11:59:19;;;;;;;0.55;0.55;;;10.60;99.90;;;;;;5092076;28;20251;-53
2021/12/13 12:02:10;;;;;;;1.08;0.43;;;10.60;99.90;;;;;;5092501;28;20177;-53
2021/12/13 12:05:06;;;;;;;2.30;0.43;;;10.60;99.90;;;;;;5092367;28;20238;-53
2021/12/13 12:07:51;;;;;;;0.65;0.52;;;10.40;99.90;;;;;;5092378;28;20170;-53
2021/12/13 12:10:39;;;;;;;1.52;0.52;;;10.40;99.90;;;;;;5092280;28;20723;-53
2021/12/13 12:13:30;;;;;;;0.40;0.40;;;10.40;99.90;;;;;;5092387;28;20594;-53
2021/12/13 12:16:01;;;;;;;0.47;0.38;;;10.40;99.90;;;;;;5092584;28;20173;-53
2021/12/13 12:18:30;;;;;;;6.88;2.78;;;10.40;99.90;;;;;;5092089;28;20641;-53
2021/12/13 12:21:33;;;;;;;0.88;0.63;;;10.40;99.90;;;;;;5092543;28;20177;-53
2021/12/13 12:24:02;;;;;;;0.80;0.80;;;10.40;99.90;;;;;;5092185;28;20189;-53
2021/12/13 12:26:28;;;;;;;2.00;1.15;;;10.40;99.90;;;;;;5092113;28;20212;-53
2021/12/13 12:28:58;;;;;;;0.90;0.60;;;10.40;99.90;;;;;;5092754;28;20185;-53
2021/12/13 12:31:33;;;;;;;3.72;1.77;;;10.50;99.90;;;;;;5092278;28;20673;-53
2021/12/13 12:34:00;;;;;;;3.42;0.60;;;10.50;99.90;;;;;;5092041;28;20313;-53
2021/12/13 12:36:43;;;;;;;2.92;0.70;;;10.50;99.90;;;;;;5092007;28;20593;-53
2021/12/13 12:39:38;;;;;;;1.13;0.40;;;10.40;99.90;;;;;;5091950;28;20735;-53
2021/12/13 12:42:32;;;;;;;2.70;0.88;;;10.40;99.90;;;;;;5090025;28;20188;-53
2021/12/13 12:45:09;;;;;;;4.85;1.20;;;10.50;99.90;;;;;;5092033;28;20161;-53
2021/12/13 12:47:34;;;;;;;1.02;0.90;;;10.40;99.90;;;;;;5091673;28;20708;-53
2021/12/13 12:50:15;;;;;;;1.77;0.90;;;10.50;99.90;;;;;;5091293;28;20192;-53
2021/12/13 12:52:53;;;;;;;1.92;0.88;;;10.50;99.90;;;;;;5091462;28;20208;-52
2021/12/13 12:55:25;;;;;;;0.80;0.80;;;10.50;99.90;;;;;;5091584;28;20204;-53
2021/12/13 12:57:51;;;;;;;1.65;0.90;;;10.50;99.90;;;;;;5091407;28;20188;-53
2021/12/13 13:00:23;;;;;;;1.50;1.00;;;10.50;99.90;;;;;;5091295;28;20643;-53
2021/12/13 13:02:50;;;;;;;2.63;1.10;;;10.50;99.90;;;;;;5095683;28;20222;-53
2021/12/13 13:05:18;;;;;;;2.17;1.20;;;10.50;99.90;;;;;;5095407;28;20165;-53
2021/12/13 13:07:44;;;;;;;4.68;1.13;;;10.40;99.90;;;;;;5095902;28;20550;-53
2021/12/13 13:10:24;;;;;;;1.77;0.80;;;10.50;99.90;;;;;;5095352;28;20213;-53
2021/12/13 13:12:56;;;;;;;1.55;0.57;;;10.40;99.90;;;;;;5095404;28;20196;-53
2021/12/13 13:15:26;;;;;;;1.25;0.80;;;10.40;99.90;;;;;;5095692;28;20161;-53
2021/12/13 13:18:21;;;;;;;2.75;0.70;;;10.40;99.90;;;;;;5095404;28;20180;-53
2021/12/13 13:21:06;;;;;;;1.52;0.95;;;10.40;99.90;;;;;;5086441;28;20224;-53
2021/12/13 13:23:48;;;;;;;1.08;0.65;;;10.40;99.90;;;;;;5095292;28;20169;-53
2021/12/13 13:26:15;;;;;;;3.65;1.10;;;10.40;99.90;;;;;;5095306;28;20183;-53
2021/12/13 13:28:46;;;;;;;5.75;0.90;;;10.40;99.90;;;;;;5095205;28;20192;-53
2021/12/13 13:31:27;;;;;;;2.13;1.00;;;10.40;99.90;;;;;;5095017;28;20254;-53
2021/12/13 13:33:58;;;;;;;1.08;0.43;;;10.40;99.90;;;;;;5095133;28;20250;-53
2021/12/13 13:36:52;;;;;;;2.38;0.70;;;10.30;99.90;;;;;;5095326;28;20173;-53
2021/12/13 13:39:35;;;;;;;0.50;0.50;;;10.40;99.90;;;;;;5095081;28;20640;-51
2021/12/13 13:42:13;;;;;;;0.55;0.55;;;10.30;99.90;;;;;;5095245;28;20199;-53
2021/12/13 13:44:44;;;;;;;1.75;0.95;;;10.30;99.90;;;;;;5095411;28;20526;-51
2021/12/13 13:47:25;;;;;;;5.93;1.05;;;10.30;99.90;;;;;;5094628;28;20185;-51
2021/12/13 13:49:51;;;;;;;2.22;1.15;;;10.30;99.90;;;;;;5094595;28;20196;-51
2021/12/13 13:52:25;;;;;;;3.45;0.95;;;10.20;99.90;;;;;;5094747;28;20266;-52